Time;durP1;ratioP1;P1;durP2;ratioP2;P2;SDS_P1;SDS_P2;PMS_P1;PMS_P2;Temp;Humidity;BMP_temperature;BMP_pressure;BME280_temperature;BME280_humidity;BME280_pressure;Samples;Min_cycle;Max_cycle;Signal;HPM_P1;HPM_P2
2023/03/23 06:48:49;;;;;;;6.57;3.13;;;;;;;;;;5132478;27;20265;-74
2023/03/23 06:59:10;;;;;;;3.63;3.00;;;;;;;;;;5071159;28;20599;-74
2023/03/23 07:03:06;;;;;;;7.10;3.03;;;;;;;;;;5131857;27;20285;-74
2023/03/23 07:07:14;;;;;;;4.63;2.83;;;11.00;99.90;;;;;;5132371;27;20269;-75
2023/03/23 07:11:05;;;;;;;6.53;3.27;;;11.10;99.90;;;;;;5131869;27;20283;-75
2023/03/23 07:15:16;;;;;;;4.10;3.00;;;11.10;99.90;;;;;;5132520;27;20607;-75
2023/03/23 07:19:18;;;;;;;2.97;2.40;;;;;;;;;;5132769;27;20272;-75
2023/03/23 07:23:14;;;;;;;3.70;2.50;;;11.40;99.90;;;;;;5134802;27;20263;-74
2023/03/23 07:27:34;;;;;;;3.30;2.87;;;11.40;99.90;;;;;;5135651;27;20263;-74
2023/03/23 07:32:11;;;;;;;4.73;2.67;;;11.30;99.90;;;;;;5135461;27;20283;-74
2023/03/23 07:37:17;;;;;;;2.63;2.20;;;;;;;;;;5135901;27;20267;-75
2023/03/23 07:41:35;;;;;;;4.10;2.47;;;11.50;99.90;;;;;;5135462;27;20787;-75
2023/03/23 07:45:40;;;;;;;3.10;2.60;;;11.20;99.90;;;;;;5133482;27;20290;-75
2023/03/23 07:50:06;;;;;;;3.87;2.63;;;11.40;99.90;;;;;;5132612;27;20724;-75
2023/03/23 07:55:24;;;;;;;6.33;2.67;;;11.70;99.90;;;;;;5132498;27;20267;-75
2023/03/23 07:59:42;;;;;;;3.40;2.27;;;11.70;99.90;;;;;;5132356;27;20627;-75
2023/03/23 08:03:16;;;;;;;2.20;2.00;;;;;;;;;;5131749;27;20271;-75
2023/03/23 08:07:01;;;;;;;5.43;2.20;;;12.20;99.90;;;;;;5132597;27;20605;-75
2023/03/23 08:09:28;;;;;;;3.17;2.47;;;;;;;;;;5131794;28;20167;-74
2023/03/23 08:13:59;;;;;;;3.63;2.70;;;12.30;99.90;;;;;;5132441;27;20671;-74
2023/03/23 08:18:11;;;;;;;4.57;2.40;;;12.30;99.90;;;;;;5143559;27;20269;-74
2023/03/23 08:22:30;;;;;;;3.37;2.60;;;;;;;;;;5137904;27;20652;-75
2023/03/23 08:26:33;;;;;;;5.77;2.40;;;12.40;99.90;;;;;;5132403;27;20270;-74
2023/03/23 08:30:00;;;;;;;2.80;2.40;;;12.60;99.90;;;;;;5132481;27;20277;-74
2023/03/23 08:32:27;;;;;;;4.33;2.60;;;12.90;99.90;;;;;;5131492;28;20187;-75
2023/03/23 08:34:53;;;;;;;3.33;2.47;;;12.40;99.90;;;;;;5131990;28;20209;-75
2023/03/23 08:37:19;;;;;;;8.00;3.27;;;12.90;99.90;;;;;;5131606;27;20185;-75
2023/03/23 08:39:45;;;;;;;6.87;2.23;;;;;;;;;;5130242;28;20171;-75
2023/03/23 08:42:11;;;;;;;6.47;2.93;;;13.00;99.90;;;;;;5130063;28;20233;-75
2023/03/23 08:44:37;;;;;;;6.87;3.40;;;13.20;99.90;;;;;;5131810;27;20178;-75
2023/03/23 08:47:04;;;;;;;7.43;3.00;;;13.20;99.90;;;;;;5131492;27;20163;-75
2023/03/23 08:49:33;;;;;;;4.90;3.30;;;13.30;99.90;;;;;;5131354;27;20190;-75
2023/03/23 08:51:59;;;;;;;6.67;2.77;;;13.60;99.90;;;;;;5131566;27;20188;-75
2023/03/23 08:54:26;;;;;;;6.13;2.53;;;13.70;99.90;;;;;;5131344;27;20577;-75
2023/03/23 08:56:52;;;;;;;5.07;3.50;;;13.90;99.90;;;;;;5131507;27;20194;-75
2023/03/23 08:59:18;;;;;;;6.20;3.10;;;14.00;99.90;;;;;;5131869;27;20625;-75
2023/03/23 09:01:43;;;;;;;4.37;2.93;;;14.30;99.90;;;;;;5131445;27;20194;-75
2023/03/23 09:04:09;;;;;;;8.27;3.00;;;14.20;99.90;;;;;;5131422;27;20536;-75
2023/03/23 09:06:36;;;;;;;6.93;3.10;;;14.40;99.90;;;;;;5131562;27;20174;-75
2023/03/23 09:09:06;;;;;;;5.17;3.10;;;14.60;99.90;;;;;;5131535;27;20246;-75
2023/03/23 09:11:33;;;;;;;22.17;7.73;;;14.90;99.90;;;;;;5130971;27;20187;-75
2023/03/23 09:13:59;;;;;;;9.30;3.63;;;14.90;99.90;;;;;;5131486;27;20172;-75
2023/03/23 09:16:25;;;;;;;5.27;2.63;;;15.20;99.90;;;;;;5130871;27;20579;-76
2023/03/23 09:18:51;;;;;;;5.70;3.27;;;15.40;99.90;;;;;;5130898;27;20217;-75
2023/03/23 09:21:17;;;;;;;8.23;3.83;;;15.80;99.90;;;;;;5129488;28;20673;-76
2023/03/23 09:23:44;;;;;;;5.23;3.90;;;15.90;99.80;;;;;;5131066;27;20177;-75
2023/03/23 09:26:10;;;;;;;6.63;4.40;;;16.20;98.40;;;;;;5131449;27;20177;-75
2023/03/23 09:28:35;;;;;;;3.97;3.10;;;16.60;96.80;;;;;;5130862;27;20212;-75
2023/03/23 09:31:01;;;;;;;6.67;4.27;;;17.30;95.40;;;;;;5130718;27;20240;-76
2023/03/23 09:33:28;;;;;;;7.27;4.20;;;17.60;92.50;;;;;;5130619;27;20173;-76
2023/03/23 09:35:54;;;;;;;8.90;3.90;;;17.40;91.70;;;;;;5130713;27;20527;-76
2023/03/23 09:38:21;;;;;;;8.27;4.50;;;17.10;90.80;;;;;;5129770;28;20185;-76
2023/03/23 09:41:18;;;;;;;6.80;4.37;;;16.90;88.90;;;;;;5118796;28;20222;-76
2023/03/23 09:43:51;;;;;;;5.23;3.70;;;16.80;88.80;;;;;;5116588;28;20195;-75
2023/03/23 09:46:34;;;;;;;5.03;3.70;;;16.80;88.20;;;;;;5116879;28;20258;-76
2023/03/23 09:49:07;;;;;;;4.50;3.40;;;16.80;88.50;;;;;;5116883;28;20277;-76
2023/03/23 09:51:47;;;;;;;6.00;3.57;;;16.70;88.70;;;;;;5116471;28;20687;-75
2023/03/23 09:54:24;;;;;;;4.37;3.20;;;16.60;88.10;;;;;;5116617;28;20159;-75
2023/03/23 09:56:51;;;;;;;4.13;3.00;;;16.50;88.50;;;;;;5116727;28;20201;-76
2023/03/23 09:59:38;;;;;;;4.00;3.10;;;16.40;88.60;;;;;;5116412;28;20181;-76
2023/03/23 10:02:26;;;;;;;4.97;3.03;;;16.30;88.80;;;;;;5116627;28;20548;-76
2023/03/23 10:04:55;;;;;;;3.43;3.00;;;16.20;87.70;;;;;;5116672;28;20235;-75
2023/03/23 10:07:25;;;;;;;5.60;2.63;;;16.10;88.30;;;;;;5116257;27;20179;-75
2023/03/23 10:10:02;;;;;;;3.70;2.60;;;16.20;88.60;;;;;;5115284;28;20679;-76
2023/03/23 10:12:31;;;;;;;5.13;3.30;;;16.30;88.40;;;;;;5115950;28;20219;-75
2023/03/23 10:15:17;;;;;;;5.63;3.73;;;16.40;88.00;;;;;;5116126;28;20174;-76
2023/03/23 10:18:00;;;;;;;5.27;3.20;;;16.50;88.50;;;;;;5116390;27;20169;-75
2023/03/23 10:20:34;;;;;;;3.67;2.90;;;16.50;87.30;;;;;;5116192;28;20167;-75
2023/03/23 10:23:13;;;;;;;3.93;2.80;;;16.50;87.60;;;;;;5116127;28;20201;-75
2023/03/23 10:25:46;;;;;;;4.17;3.00;;;16.50;86.30;;;;;;5115879;28;20164;-76
2023/03/23 10:28:16;;;;;;;4.37;2.67;;;16.40;86.60;;;;;;5115926;28;20209;-75
2023/03/23 10:30:46;;;;;;;3.97;2.80;;;16.40;87.10;;;;;;5115854;28;20179;-75
2023/03/23 10:33:19;;;;;;;3.93;3.13;;;16.50;87.40;;;;;;5115689;28;20202;-76
2023/03/23 10:35:55;;;;;;;4.40;3.00;;;16.80;88.20;;;;;;5115758;28;20632;-75
2023/03/23 10:38:32;;;;;;;4.37;3.27;;;17.00;88.10;;;;;;5116430;28;20186;-75
2023/03/23 10:41:02;;;;;;;3.93;3.13;;;17.30;87.00;;;;;;5117625;27;20207;-75
2023/03/23 10:43:29;;;;;;;5.13;2.73;;;17.40;84.70;;;;;;5114738;28;20591;-75
2023/03/23 10:46:01;;;;;;;5.70;3.13;;;17.60;85.30;;;;;;5115746;27;20177;-76
2023/03/23 10:48:38;;;;;;;4.53;2.93;;;17.70;85.90;;;;;;5115506;28;20247;-75
2023/03/23 10:51:12;;;;;;;3.63;2.87;;;17.90;84.20;;;;;;5115261;28;20211;-76
2023/03/23 10:53:45;;;;;;;4.50;2.80;;;18.30;84.50;;;;;;5115590;28;20625;-75
2023/03/23 10:56:41;;;;;;;3.37;2.80;;;18.70;81.90;;;;;;5115398;28;20670;-76
2023/03/23 10:59:26;;;;;;;2.90;2.57;;;18.80;78.90;;;;;;5106731;28;20183;-76
2023/03/23 11:01:55;;;;;;;3.40;2.57;;;19.10;79.20;;;;;;5115067;28;20199;-76
2023/03/23 11:04:22;;;;;;;4.77;2.63;;;19.30;77.40;;;;;;5115111;28;20633;-75
2023/03/23 11:06:57;;;;;;;4.30;2.80;;;19.30;79.50;;;;;;5114992;28;20175;-76
2023/03/23 11:09:36;;;;;;;5.40;2.60;;;19.50;76.80;;;;;;5115208;28;20211;-76
2023/03/23 11:12:16;;;;;;;4.73;2.53;;;19.40;76.60;;;;;;5116397;28;20248;-76
2023/03/23 11:14:42;;;;;;;5.33;3.07;;;19.20;75.30;;;;;;5115547;28;20194;-76
2023/03/23 11:17:27;;;;;;;4.67;3.03;;;19.20;77.40;;;;;;5114699;28;20178;-74
2023/03/23 11:19:56;;;;;;;5.30;2.70;;;19.50;74.50;;;;;;5115173;28;20167;-76
2023/03/23 11:22:32;;;;;;;6.77;4.63;;;19.80;75.50;;;;;;5114395;28;20203;-76
2023/03/23 11:25:05;;;;;;;13.33;7.83;;;20.10;74.10;;;;;;5115229;28;20610;-74
2023/03/23 11:27:32;;;;;;;7.20;4.27;;;20.30;72.30;;;;;;5114837;28;20681;-74
2023/03/23 11:30:27;;;;;;;7.63;4.80;;;19.80;71.60;;;;;;5114475;28;20198;-76
2023/03/23 11:32:54;;;;;;;7.17;5.23;;;19.20;73.10;;;;;;5113217;28;20248;-76
2023/03/23 11:35:27;;;;;;;6.03;3.73;;;19.00;74.10;;;;;;5114431;28;20181;-76
2023/03/23 11:37:57;;;;;;;5.80;3.80;;;19.10;73.70;;;;;;5114405;28;20187;-76
2023/03/23 11:40:31;;;;;;;5.83;3.40;;;18.90;72.80;;;;;;5114748;28;20183;-76
2023/03/23 11:43:00;;;;;;;4.10;3.43;;;18.70;72.70;;;;;;5113408;28;20200;-76
2023/03/23 11:45:46;;;;;;;5.73;4.00;;;18.20;71.80;;;;;;5113164;28;20180;-76
2023/03/23 11:48:50;;;;;;;6.10;3.80;;;18.20;72.10;;;;;;5114511;28;20633;-76
2023/03/23 11:51:31;;;;;;;3.47;2.97;;;18.30;72.20;;;;;;5114495;28;20195;-76
2023/03/23 11:54:26;;;;;;;4.80;2.40;;;18.10;71.90;;;;;;5114237;28;20163;-76
2023/03/23 11:56:52;;;;;;;2.60;2.30;;;18.20;72.10;;;;;;5098650;28;20595;-76
2023/03/23 11:59:27;;;;;;;2.20;2.00;;;18.20;71.60;;;;;;5113863;28;20240;-76
2023/03/23 12:02:12;;;;;;;2.93;1.87;;;18.10;70.50;;;;;;5113321;28;20210;-76
2023/03/23 12:04:56;;;;;;;2.50;1.80;;;17.80;71.40;;;;;;5112095;28;20202;-75
2023/03/23 12:07:56;;;;;;;1.90;1.70;;;17.80;71.60;;;;;;5113409;28;20217;-76
2023/03/23 12:11:21;;;;;;;2.80;1.87;;;17.70;71.90;;;;;;5113605;28;20168;-77
2023/03/23 12:14:13;;;;;;;2.03;1.70;;;17.90;72.60;;;;;;5070575;28;20655;-77
2023/03/23 12:17:01;;;;;;;2.93;1.63;;;17.80;72.50;;;;;;5116589;27;20652;-76
2023/03/23 12:19:45;;;;;;;2.43;1.40;;;17.60;73.10;;;;;;5095096;28;20202;-76
2023/03/23 12:22:39;;;;;;;2.00;1.50;;;17.50;71.40;;;;;;5112186;28;20203;-76
2023/03/23 12:25:27;;;;;;;3.00;1.60;;;17.40;73.20;;;;;;5108043;28;20191;-77
2023/03/23 12:28:05;;;;;;;2.73;1.60;;;17.40;73.20;;;;;;5099146;28;20203;-77
2023/03/23 12:30:51;;;;;;;1.63;1.47;;;17.50;74.40;;;;;;5092158;28;20176;-77
2023/03/23 12:33:46;;;;;;;2.73;1.80;;;17.50;74.40;;;;;;5093177;28;20152;-77
2023/03/23 12:36:12;;;;;;;5.27;2.77;;;17.60;75.10;;;;;;5093789;28;20182;-78
2023/03/23 12:38:46;;;;;;;4.20;2.43;;;17.70;76.10;;;;;;5106132;28;20790;-77
2023/03/23 12:41:17;;;;;;;2.70;1.90;;;17.90;74.60;;;;;;5113407;28;20255;-77
2023/03/23 12:43:52;;;;;;;4.37;2.43;;;17.70;74.10;;;;;;5116025;28;20257;-77
2023/03/23 12:46:36;;;;;;;3.70;2.87;;;17.50;74.60;;;;;;5105223;28;20182;-78
2023/03/23 12:49:18;;;;;;;7.13;2.83;;;17.50;75.10;;;;;;5093278;28;20203;-77
2023/03/23 12:51:47;;;;;;;7.60;4.07;;;17.60;74.60;;;;;;5093550;28;20198;-78
2023/03/23 12:54:23;;;;;;;5.73;3.20;;;17.60;75.60;;;;;;5092317;28;20179;-77
2023/03/23 12:57:01;;;;;;;4.20;2.97;;;17.60;75.30;;;;;;5092101;28;20180;-77
2023/03/23 12:59:59;;;;;;;6.73;4.23;;;17.70;75.60;;;;;;5112520;28;20545;-77
2023/03/23 13:02:38;;;;;;;7.77;4.83;;;17.70;76.20;;;;;;5106723;28;20293;-77
2023/03/23 13:05:04;;;;;;;8.60;4.90;;;17.80;77.60;;;;;;5093478;28;20172;-77
2023/03/23 13:07:35;;;;;;;10.80;6.33;;;18.20;75.00;;;;;;5098912;28;20176;-77
2023/03/23 13:10:05;;;;;;;8.83;5.23;;;17.60;75.10;;;;;;5108419;28;20566;-77
2023/03/23 13:12:32;;;;;;;9.43;5.20;;;17.20;76.40;;;;;;5105668;28;20199;-77
2023/03/23 13:15:16;;;;;;;9.43;6.17;;;17.10;77.10;;;;;;5113904;28;20288;-77
2023/03/23 13:17:58;;;;;;;13.70;7.40;;;17.40;77.40;;;;;;5115657;28;20171;-77
2023/03/23 13:21:00;;;;;;;13.87;8.33;;;18.40;77.50;;;;;;5115990;28;20198;-77
2023/03/23 13:23:34;;;;;;;24.80;13.03;;;19.30;75.30;;;;;;5073610;28;20196;-77
2023/03/23 13:26:03;;;;;;;5.33;3.60;;;19.90;74.20;;;;;;5093052;28;20199;-77
2023/03/23 13:28:53;;;;;;;4.60;3.67;;;21.20;71.60;;;;;;5096393;28;20208;-75
2023/03/23 13:31:39;;;;;;;5.20;3.30;;;21.40;71.00;;;;;;5094852;28;20605;-77
2023/03/23 13:34:18;;;;;;;4.07;3.43;;;20.80;70.70;;;;;;5096188;28;20180;-77
2023/03/23 13:36:55;;;;;;;2.43;2.23;;;20.00;70.70;;;;;;5096428;28;20153;-82
2023/03/23 13:39:20;;;;;;;7.13;5.10;;;19.30;73.60;;;;;;5109234;28;20653;-77
2023/03/23 13:42:08;;;;;;;10.03;7.53;;;19.80;73.80;;;;;;5116457;28;20202;-76
2023/03/23 13:44:49;;;;;;;8.80;7.20;;;20.60;72.40;;;;;;5109249;27;20188;-77
2023/03/23 13:47:20;;;;;;;3.27;2.30;;;20.70;70.60;;;;;;5116934;28;20199;-77
2023/03/23 13:50:10;;;;;;;3.63;2.60;;;20.00;71.10;;;;;;5116264;28;20199;-77
2023/03/23 13:52:45;;;;;;;3.40;2.93;;;19.30;71.80;;;;;;5116188;28;20191;-76
2023/03/23 13:55:30;;;;;;;4.30;3.90;;;19.30;74.40;;;;;;5116270;28;20171;-76
2023/03/23 13:58:12;;;;;;;3.10;2.20;;;19.20;73.90;;;;;;5116327;28;20168;-77
2023/03/23 14:00:47;;;;;;;4.03;3.43;;;19.30;73.80;;;;;;5116517;28;20255;-76
2023/03/23 14:03:14;;;;;;;5.00;2.60;;;19.50;73.00;;;;;;5116763;28;20254;-77
2023/03/23 14:05:48;;;;;;;3.43;2.73;;;19.10;73.20;;;;;;5121270;28;20175;-79
2023/03/23 14:08:16;;;;;;;6.00;2.33;;;18.60;73.80;;;;;;5116737;28;20192;-76
2023/03/23 14:10:48;;;;;;;2.90;2.23;;;18.10;75.40;;;;;;5115773;28;20175;-77
2023/03/23 14:13:43;;;;;;;3.53;3.23;;;17.80;76.50;;;;;;5112481;28;20715;-78
2023/03/23 14:16:20;;;;;;;3.70;2.83;;;17.70;77.20;;;;;;5098159;28;20186;-78
2023/03/23 14:18:54;;;;;;;8.73;6.53;;;17.60;77.60;;;;;;5116244;28;20183;-77
2023/03/23 14:21:33;;;;;;;4.63;3.63;;;17.50;78.30;;;;;;5116376;28;20251;-77
2023/03/23 14:24:10;;;;;;;6.30;4.07;;;17.40;78.80;;;;;;5112457;28;20218;-77
2023/03/23 14:26:36;;;;;;;3.80;2.97;;;17.20;78.30;;;;;;5115864;28;20175;-77
2023/03/23 14:29:04;;;;;;;4.47;3.57;;;17.00;79.30;;;;;;5114511;28;20207;-77
2023/03/23 14:31:30;;;;;;;10.13;5.87;;;17.00;80.60;;;;;;5114557;28;20565;-77
2023/03/23 14:34:00;;;;;;;7.63;5.40;;;16.90;80.80;;;;;;5113831;28;20179;-77
2023/03/23 14:36:29;;;;;;;6.27;4.33;;;16.70;80.90;;;;;;5116103;28;20259;-77
2023/03/23 14:39:12;;;;;;;2.57;2.37;;;16.70;82.00;;;;;;5116455;28;20182;-78
2023/03/23 14:41:39;;;;;;;2.50;2.30;;;16.60;81.00;;;;;;5115116;28;20202;-77
2023/03/23 14:44:08;;;;;;;2.90;2.10;;;16.50;82.50;;;;;;5111003;28;20189;-76
2023/03/23 14:46:35;;;;;;;3.73;2.13;;;16.50;81.70;;;;;;5103039;28;20182;-77
2023/03/23 14:49:05;;;;;;;2.43;2.10;;;16.30;81.80;;;;;;5096325;28;20190;-77
2023/03/23 14:51:31;;;;;;;4.07;2.57;;;16.20;82.20;;;;;;5096213;28;20201;-79
2023/03/23 14:54:00;;;;;;;2.60;2.10;;;16.10;82.10;;;;;;5094297;28;20356;-77
2023/03/23 14:56:36;;;;;;;4.60;2.27;;;16.10;82.10;;;;;;5096938;28;20166;-77
2023/03/23 14:59:08;;;;;;;3.47;2.40;;;15.90;83.70;;;;;;5115101;28;20161;-75
2023/03/23 15:01:37;;;;;;;3.93;2.03;;;15.80;84.90;;;;;;5115273;28;20193;-77
2023/03/23 15:04:18;;;;;;;3.07;2.40;;;15.70;87.00;;;;;;5114868;28;20495;-77
2023/03/23 15:06:54;;;;;;;4.80;2.10;;;15.60;88.90;;;;;;5106978;28;20636;-77
2023/03/23 15:09:22;;;;;;;4.23;2.20;;;15.50;90.50;;;;;;5093757;28;20227;-79
2023/03/23 15:12:03;;;;;;;3.90;2.37;;;15.20;91.90;;;;;;5101797;28;20658;-77
2023/03/23 15:14:57;;;;;;;3.80;2.07;;;15.00;93.60;;;;;;5093505;28;20503;-78
2023/03/23 15:17:25;;;;;;;4.60;2.20;;;14.80;95.00;;;;;;5093263;28;20193;-77
2023/03/23 15:19:53;;;;;;;3.60;1.97;;;14.70;96.30;;;;;;5094730;28;20260;-77
2023/03/23 15:22:21;;;;;;;8.77;2.40;;;14.50;94.90;;;;;;5094521;28;20673;-77
2023/03/23 15:24:48;;;;;;;2.03;1.63;;;14.40;95.70;;;;;;5093320;28;20204;-77
2023/03/23 16:22:34;;;;;;;3.30;2.30;;;13.50;99.90;;;;;;5007353;27;20583;-76
